Time;durP1;ratioP1;P1;durP2;ratioP2;P2;SDS_P1;SDS_P2;PMS_P1;PMS_P2;Temp;Humidity;BMP_temperature;BMP_pressure;BME280_temperature;BME280_humidity;BME280_pressure;Samples;Min_cycle;Max_cycle;Signal;HPM_P1;HPM_P2
2021/11/01 00:02:06;;;;;;;;;;;9.60;99.90;;;8.47;100.00;94493.19;10532698;28;1912;-76
2021/11/01 00:07:10;;;;;;;;;;;9.60;99.90;;;8.38;100.00;94497.59;10522357;28;1894;-78
2021/11/01 00:12:13;;;;;;;;;;;9.60;99.90;;;8.39;100.00;94494.63;10522522;28;2098;-78
2021/11/01 00:17:18;;;;;;;;;;;9.60;99.90;;;8.43;99.83;94494.06;10536587;28;1876;-78
2021/11/01 00:22:41;;;;;;;;;;;9.60;99.90;;;8.54;98.15;94492.81;10527123;28;2075;-78
2021/11/01 00:27:44;;;;;;;;;;;9.60;99.90;;;8.72;97.81;94475.13;10521954;28;1927;-77
2021/11/01 00:33:07;;;;;;;;;;;9.60;99.90;;;8.81;96.60;94473.34;10517981;28;1943;-79
2021/11/01 00:38:10;;;;;;;;;;;9.70;99.90;;;8.63;97.42;94470.41;10519272;28;2078;-79
2021/11/01 00:43:13;;;;;;;;;;;9.80;99.90;;;8.60;98.17;94462.97;10516925;28;2082;-79
2021/11/01 00:48:15;;;;;;;;;;;9.80;99.90;;;8.56;98.36;94456.59;10527128;28;1953;-78
2021/11/01 00:53:18;;;;;;;;;;;9.70;99.90;;;8.47;99.20;94462.94;10531080;28;1947;-77
2021/11/01 00:58:21;;;;;;;;;;;9.70;99.90;;;8.38;99.50;94458.22;10525952;28;2071;-78
2021/11/01 01:03:24;;;;;;;;;;;9.60;99.90;;;8.23;100.00;94449.59;10529433;28;1900;-76
2021/11/01 01:08:27;;;;;;;;;;;9.50;99.90;;;8.09;100.00;94446.88;10532110;28;1951;-77
2021/11/01 01:13:35;;;;;;;;;;;9.30;99.90;;;8.02;100.00;94449.13;10537374;28;1916;-77
2021/11/01 01:18:39;;;;;;;;;;;9.20;99.90;;;8.00;100.00;94448.59;10530288;28;1901;-79
2021/11/01 01:23:42;;;;;;;;;;;9.20;99.90;;;7.91;100.00;94445.78;10529721;28;1913;-76
2021/11/01 01:28:45;;;;;;;;;;;9.10;99.90;;;7.91;100.00;94451.13;10527646;28;2019;-76
2021/11/01 01:33:47;;;;;;;;;;;9.10;99.90;;;7.87;100.00;94444.75;10539285;28;1888;-78
2021/11/01 01:38:50;;;;;;;;;;;8.90;99.90;;;7.74;100.00;94435.56;10527437;28;2118;-78
2021/11/01 01:43:53;;;;;;;;;;;8.90;99.90;;;7.71;100.00;94432.69;10530437;28;1971;-77
2021/11/01 01:48:56;;;;;;;;;;;8.90;99.90;;;7.78;100.00;94435.78;10531716;28;1951;-78
2021/11/01 01:53:59;;;;;;;;;;;8.90;99.90;;;7.67;100.00;94440.47;10540810;28;1960;-77
2021/11/01 01:59:04;;;;;;;;;;;8.90;99.90;;;7.57;100.00;94428.03;10540291;28;2038;-78
2021/11/01 02:04:07;;;;;;;;;;;8.80;99.90;;;7.53;100.00;94434.25;10557004;28;1932;-77
2021/11/01 02:09:10;;;;;;;;;;;8.70;99.90;;;7.48;100.00;94426.28;10565701;28;1958;-78
2021/11/01 02:14:33;;;;;;;;;;;8.70;99.90;;;7.49;100.00;94417.16;10563670;28;1908;-77
2021/11/01 02:19:55;;;;;;;;;;;8.60;99.90;;;7.53;100.00;94421.66;10555772;28;2020;-77
2021/11/01 02:25:18;;;;;;;;;;;8.70;99.90;;;7.43;100.00;94421.00;10561591;28;1857;-77
2021/11/01 02:30:24;;;;;;;;;;;8.60;99.90;;;7.35;100.00;94414.41;10566028;28;2023;-77
2021/11/01 02:35:27;;;;;;;;;;;8.60;99.90;;;7.32;100.00;94412.31;10558098;28;1913;-77
2021/11/01 02:40:31;;;;;;;;;;;8.50;99.90;;;7.22;100.00;94415.91;10568474;28;1635;-77
2021/11/01 02:45:53;;;;;;;;;;;8.50;99.90;;;7.20;100.00;94411.94;10557526;28;1890;-78
2021/11/01 02:51:07;;;;;;;;;;;8.40;99.90;;;7.28;100.00;94400.59;10559560;28;1921;-76
2021/11/01 02:56:30;;;;;;;;;;;8.40;99.90;;;7.25;100.00;94401.16;10561003;28;1985;-78
2021/11/01 03:01:33;;;;;;;;;;;8.40;99.90;;;7.20;100.00;94398.56;10560589;28;1860;-78
2021/11/01 03:06:36;;;;;;;;;;;8.40;99.90;;;7.12;100.00;94394.63;10557559;28;1906;-76
2021/11/01 03:11:39;;;;;;;;;;;8.30;99.90;;;7.10;100.00;94386.09;10554192;28;1869;-77
2021/11/01 03:16:42;;;;;;;;;;;8.20;99.90;;;7.11;100.00;94384.22;10555701;28;1832;-79
2021/11/01 03:21:45;;;;;;;;;;;8.20;99.90;;;7.11;100.00;94374.31;10561765;28;1878;-77
2021/11/01 03:26:48;;;;;;;;;;;8.20;99.90;;;7.16;100.00;94368.13;10561486;28;1996;-78
2021/11/01 03:31:50;;;;;;;;;;;8.30;99.90;;;7.24;100.00;94364.81;10558400;28;1909;-77
2021/11/01 03:36:54;;;;;;;;;;;8.30;99.90;;;7.34;100.00;94362.03;10524419;28;2047;-78
2021/11/01 03:41:57;;;;;;;;;;;8.40;99.90;;;7.24;100.00;94356.81;10523149;28;2150;-78
2021/11/01 03:47:02;;;;;;;;;;;8.40;99.90;;;7.17;100.00;94353.69;10530996;28;1960;-77
2021/11/01 03:52:09;;;;;;;;;;;8.30;99.90;;;7.05;100.00;94357.56;10530559;28;1924;-78
2021/11/01 03:57:13;;;;;;;;;;;8.30;99.90;;;6.94;100.00;94348.09;10520145;28;1921;-77
2021/11/01 04:02:16;;;;;;;;;;;8.10;99.90;;;6.96;100.00;94340.59;10523629;28;1860;-77
2021/11/01 04:07:19;;;;;;;;;;;8.10;99.90;;;7.05;100.00;94341.53;10513525;28;1910;-76
2021/11/01 04:12:22;;;;;;;;;;;8.10;99.90;;;6.95;100.00;94336.31;10524986;28;1890;-77
2021/11/01 04:17:36;;;;;;;;;;;8.10;99.90;;;6.88;100.00;94338.56;10524493;28;1913;-78
2021/11/01 04:23:01;;;;;;;;;;;8.00;99.90;;;6.78;100.00;94344.00;10526528;28;1836;-78
2021/11/01 04:28:24;;;;;;;;;;;8.00;99.90;;;6.73;100.00;94336.03;10523119;28;1905;-78
2021/11/01 04:33:48;;;;;;;;;;;7.90;99.90;;;6.69;100.00;94351.06;10516862;28;1949;-77
2021/11/01 04:39:13;;;;;;;;;;;7.90;99.90;;;6.71;100.00;94349.69;10522120;28;1824;-78
2021/11/01 04:55:55;;;;;;;;;;;7.90;99.90;;;6.69;100.00;94345.72;10505579;28;1799;-78
2021/11/01 05:01:19;;;;;;;;;;;7.90;99.90;;;6.65;100.00;94350.03;10561223;28;1858;-78
2021/11/01 05:06:48;;;;;;;;;;;7.80;99.90;;;6.59;100.00;94345.81;10560943;28;1886;-77
2021/11/01 05:12:25;;;;;;;;;;;7.80;99.90;;;6.58;100.00;94352.22;10565394;28;2048;-77
2021/11/01 05:17:36;;;;;;;;;;;7.80;99.90;;;6.56;100.00;94354.41;10565351;28;1869;-78
2021/11/01 05:22:45;;;;;;;;;;;7.70;99.90;;;6.56;100.00;94351.72;10553010;28;1851;-78
2021/11/01 05:33:19;;;;;;;;;;;7.80;99.90;;;6.65;100.00;94358.03;10525461;28;1926;-78
2021/11/01 05:38:22;;;;;;;;;;;7.80;99.90;;;6.69;100.00;94361.72;10558575;28;1986;-78
2021/11/01 05:43:24;;;;;;;;;;;7.80;99.90;;;6.74;100.00;94365.16;10567409;28;1941;-79
2021/11/01 05:48:51;;;;;;;;;;;7.80;99.90;;;6.95;100.00;94379.06;10597737;28;1970;-79
2021/11/01 05:54:16;;;;;;;;;;;7.90;99.90;;;7.28;99.86;94384.56;10597538;28;1890;-79
2021/11/01 06:05:26;;;;;;;;;;;8.40;99.90;;;8.01;95.64;94392.09;10540427;28;2014;-79
2021/11/01 06:13:25;;;;;;;;;;;8.80;99.90;;;8.13;96.48;94403.16;10552120;28;1873;-79
2021/11/01 06:16:36;;;;;;;;;;;8.90;99.90;;;8.35;95.45;94404.44;10535191;28;1953;-79
2021/11/01 06:21:59;;;;;;;;;;;9.10;99.90;;;8.61;94.26;94410.19;10538911;28;1902;-78
2021/11/01 06:27:23;;;;;;;;;;;9.20;99.90;;;8.91;91.09;94415.03;10534904;28;2038;-79
2021/11/01 06:32:47;;;;;;;;;;;9.50;99.90;;;9.10;88.23;94425.66;10534198;28;2013;-78
2021/11/01 06:44:03;;;;;;;;;;;10.10;99.90;;;9.07;87.90;94473.72;10539897;28;1893;-78
2021/11/01 06:49:45;;;;;;;;;;;10.10;99.90;;;8.96;88.50;94513.28;10540074;28;1973;-78
2021/11/01 07:16:41;;;;;;;;;;;10.00;99.90;;;9.22;95.79;94559.22;10534702;28;1937;-78
2021/11/01 08:36:56;;;;;;;;;;;11.80;99.90;;;10.58;98.97;94602.56;10521562;28;2087;-78
2021/11/01 08:47:37;;;;;;;;;;;11.50;99.90;;;10.49;100.00;94607.03;10528633;28;1902;-79
2021/11/01 09:20:02;;;;;;;;;;;11.40;99.90;;;10.39;96.31;94636.81;10527356;28;2063;-78
2021/11/01 09:25:39;;;;;;;;;;;11.40;99.90;;;10.51;94.15;94647.84;10528692;28;1846;-79
2021/11/01 09:36:48;;;;;;;;;;;11.40;99.90;;;10.50;94.75;94667.75;10541409;28;1893;-78
2021/11/01 09:42:13;;;;;;;;;;;11.40;99.90;;;10.63;93.00;94668.84;10533117;28;1921;-80
2021/11/01 09:47:37;;;;;;;;;;;11.50;99.90;;;10.66;91.58;94679.78;10546069;28;1988;-79
2021/11/01 09:53:01;;;;;;;;;;;11.50;99.90;;;10.35;91.10;94682.28;10545933;28;1927;-78
2021/11/01 10:04:05;;;;;;;;;;;11.30;99.90;;;10.00;95.42;94686.41;10550689;28;1867;-78
2021/11/01 10:09:27;;;;;;;;;;;11.10;99.90;;;9.83;96.94;94699.59;10538715;28;2026;-78
2021/11/01 10:14:48;;;;;;;;;;;10.90;99.90;;;9.88;98.95;94689.56;10543025;28;1965;-78
2021/11/01 10:20:10;;;;;;;;;;;10.90;99.90;;;9.79;99.43;94702.03;10531439;28;2445;-78
2021/11/01 10:25:31;;;;;;;;;;;10.80;99.90;;;9.68;99.82;94690.69;10549002;28;1986;-79
2021/11/01 10:30:53;;;;;;;;;;;10.80;99.90;;;9.52;100.00;94708.13;10538841;28;2051;-78
2021/11/01 10:36:14;;;;;;;;;;;10.70;99.90;;;9.46;100.00;94709.28;10539103;28;1931;-77
2021/11/01 10:41:40;;;;;;;;;;;10.60;99.90;;;9.34;100.00;94698.22;10532061;28;3251;-76
2021/11/01 11:15:23;;;;;;;;;;;9.80;99.90;;;8.96;100.00;94673.31;10531863;28;2289;-75
2021/11/01 11:21:03;;;;;;;;;;;9.90;99.90;;;9.07;100.00;94670.19;10532250;28;1926;-75
2021/11/01 11:48:11;;;;;;;;;;;10.10;99.90;;;8.99;100.00;94641.38;10504240;28;1985;-75
2021/11/01 11:53:14;;;;;;;;;;;10.00;99.90;;;9.03;100.00;94644.25;10525573;28;1936;-77
2021/11/01 11:58:17;;;;;;;;;;;9.90;99.90;;;9.04;100.00;94641.28;10522334;28;1982;-76
2021/11/01 12:03:20;;;;;;;;;;;10.00;99.90;;;9.23;100.00;94641.28;10530797;28;1846;-76
2021/11/01 12:08:25;;;;;;;;;;;10.10;99.90;;;9.12;100.00;94635.28;10548692;27;1972;-76
2021/11/01 12:13:55;;;;;;;;;;;10.10;99.90;;;9.04;100.00;94627.91;10529143;28;2325;-76
2021/11/01 12:18:58;;;;;;;;;;;10.10;99.90;;;9.00;100.00;94626.09;10523477;28;2066;-76
2021/11/01 12:24:01;;;;;;;;;;;10.00;99.90;;;8.94;100.00;94620.00;10530572;28;1925;-76
2021/11/01 12:29:04;;;;;;;;;;;9.90;99.90;;;8.72;100.00;94617.13;10526079;28;1910;-75
2021/11/01 12:34:12;;;;;;;;;;;9.80;99.90;;;8.72;100.00;94625.16;10528217;28;1876;-77
2021/11/01 12:39:15;;;;;;;;;;;9.80;99.90;;;8.82;100.00;94630.34;10539046;28;1921;-77
2021/11/01 13:00:24;;;;;;;;;;;9.70;99.90;;;8.83;100.00;94615.88;10596763;28;1759;-77
2021/11/01 13:05:27;;;;;;;;;;;9.80;99.90;;;8.78;100.00;94611.41;10587527;28;1930;-76
2021/11/01 13:10:36;;;;;;;;;;;9.80;99.90;;;8.52;100.00;94607.47;10592640;28;1847;-76
2021/11/01 13:21:20;;;;;;;;;;;9.60;99.90;;;8.59;100.00;94603.34;10591847;28;1843;-76
2021/11/01 13:26:29;;;;;;;;;;;9.60;99.90;;;8.61;100.00;94609.22;10580310;27;1988;-76
2021/11/01 13:36:53;;;;;;;;;;;9.60;99.90;;;8.64;100.00;94605.94;10593180;27;1903;-78
2021/11/01 13:41:56;;;;;;;;;;;9.60;99.90;;;8.66;100.00;94590.41;10600765;27;1880;-77
2021/11/01 13:46:59;;;;;;;;;;;9.70;99.90;;;8.59;100.00;94598.00;10598416;27;1950;-77
2021/11/01 13:52:02;;;;;;;;;;;9.60;99.90;;;8.63;100.00;94596.31;10588221;27;1916;-78
2021/11/01 13:57:06;;;;;;;;;;;9.60;99.90;;;8.70;100.00;94600.53;10590331;28;1919;-78
2021/11/01 14:02:28;;;;;;;;;;;9.60;99.90;;;8.64;100.00;94600.59;10580101;28;1899;-79
2021/11/01 14:13:01;;;;;;;;;;;9.60;99.90;;;8.50;100.00;94585.53;10574291;28;1887;-77
2021/11/01 14:18:32;;;;;;;;;;;9.60;99.90;;;8.54;100.00;94589.25;10572212;28;1966;-77
2021/11/01 14:34:36;;;;;;;;;;;9.30;99.90;;;8.38;100.00;94575.25;10557739;28;1857;-77
2021/11/01 15:17:19;;;;;;;;;;;9.20;99.90;;;7.73;100.00;94573.06;10570055;28;1903;-78
2021/11/01 15:28:02;;;;;;;;;;;8.70;99.90;;;7.36;100.00;94588.97;10538346;28;2209;-77
2021/11/01 15:33:41;;;;;;;;;;;8.40;99.90;;;7.31;100.00;94576.44;10561055;28;2014;-76
2021/11/01 16:21:33;;;;;;;;;;;7.90;99.90;;;6.87;100.00;94577.38;10560128;28;1848;-77
2021/11/01 16:26:36;;;;;;;;;;;7.90;99.90;;;6.81;100.00;94572.31;10559879;28;1984;-77
2021/11/01 16:31:49;;;;;;;;;;;7.80;99.90;;;6.77;100.00;94577.44;10566842;28;1263;-76
2021/11/01 16:42:19;;;;;;;;;;;7.80;99.90;;;6.71;100.00;94589.22;10548691;28;1268;-76
2021/11/01 16:47:21;;;;;;;;;;;7.70;99.90;;;6.76;100.00;94594.53;10565113;28;2013;-76
2021/11/01 16:52:25;;;;;;;;;;;7.80;99.90;;;6.81;100.00;94602.53;10571412;28;1467;-77
2021/11/01 16:57:30;;;;;;;;;;;7.80;99.90;;;6.71;100.00;94594.56;10576016;28;1690;-77
2021/11/01 17:02:48;;;;;;;;;;;7.80;99.90;;;6.78;100.00;94600.41;10555178;28;1779;-76
2021/11/01 17:24:17;;;;;;;;;;;7.80;99.90;;;6.72;100.00;94610.31;10580516;28;2320;-75
2021/11/01 17:29:33;;;;;;;;;;;7.80;99.90;;;6.68;100.00;94611.13;10570805;28;1910;-77
2021/11/01 17:34:50;;;;;;;;;;;7.70;99.90;;;6.63;100.00;94603.97;10593974;27;1497;-76
2021/11/01 18:54:57;;;;;;;;;;;7.50;99.90;;;6.56;100.00;94602.69;10575693;27;1683;-76
2021/11/01 19:00:01;;;;;;;;;;;7.60;99.90;;;6.51;100.00;94590.16;10573342;28;1440;-76
2021/11/01 19:05:08;;;;;;;;;;;7.50;99.90;;;6.45;100.00;94589.41;10578423;28;3287;-78
2021/11/01 19:10:48;;;;;;;;;;;7.50;99.90;;;6.52;100.00;94593.63;10562931;28;2064;-76
2021/11/01 20:04:08;;;;;;;;;;;7.60;99.90;;;6.56;100.00;94534.06;10585629;28;1276;-78
2021/11/01 20:15:10;;;;;;;;;;;7.60;99.90;;;6.64;100.00;94522.78;10575990;28;1514;-76
2021/11/01 21:24:34;;;;;;;;;;;7.60;99.90;;;6.64;100.00;94487.28;10578950;27;1455;-76
2021/11/01 21:29:37;;;;;;;;;;;7.60;99.90;;;6.60;100.00;94465.66;10584013;27;1910;-76
2021/11/01 21:34:42;;;;;;;;;;;7.60;99.90;;;6.62;100.00;94460.88;10578343;27;1421;-76
2021/11/01 21:39:45;;;;;;;;;;;7.60;99.90;;;6.65;100.00;94451.47;10576409;27;1985;-76
2021/11/01 21:44:48;;;;;;;;;;;7.70;99.90;;;6.63;100.00;94443.75;10579644;27;1484;-75
2021/11/01 21:49:51;;;;;;;;;;;7.70;99.90;;;6.63;100.00;94442.97;10576358;27;1905;-75
2021/11/01 21:54:56;;;;;;;;;;;7.70;99.90;;;6.67;100.00;94443.97;10586339;27;1895;-76
2021/11/01 22:21:16;;;;;;;;;;;7.60;99.90;;;6.54;100.00;94423.28;10579928;27;1882;-75
2021/11/01 22:26:29;;;;;;;;;;;7.60;99.90;;;6.54;100.00;94415.25;10557532;28;1906;-75
2021/11/01 22:42:27;;;;;;;;;;;7.60;99.90;;;6.57;100.00;94402.16;10562271;28;1950;-74
2021/11/01 22:47:58;;;;;;;;;;;7.60;99.90;;;6.59;100.00;94402.66;10556851;28;1906;-75
2021/11/01 22:58:27;;;;;;;;;;;7.60;99.90;;;6.47;100.00;94389.69;10505661;28;1839;-75
2021/11/01 23:03:34;;;;;;;;;;;7.60;99.90;;;6.53;100.00;94385.09;10559009;28;1938;-75
2021/11/01 23:35:19;;;;;;;;;;;7.50;99.90;;;6.43;100.00;94372.66;10555096;28;2318;-75
2021/11/01 23:40:22;;;;;;;;;;;7.50;99.90;;;6.42;100.00;94376.38;10560950;28;1921;-76
2021/11/01 23:45:25;;;;;;;;;;;7.50;99.90;;;6.39;100.00;94374.28;10560970;28;1934;-75
2021/11/01 23:50:33;;;;;;;;;;;7.50;99.90;;;6.39;100.00;94384.19;10554105;28;2029;-75
2021/11/01 23:55:36;;;;;;;;;;;7.50;99.90;;;6.35;100.00;94367.91;10552373;28;2306;-76
